METAR AND TAF INFORMATION
METAR FOR SKLC
ADDS - METARS form results

(1541 UTC 11 August 2020)
Data provider http://aviationweather.gov/metar/data/
 
METAR text: SKLC 111500Z 00000KT 9999 BKN010 28/25 A2981
Conditions at: SKLC (APARTADO/LOS CED, CO) observed 1500 UTC 11 August 2020
Temperature: 28.0°C (82°F)
Dewpoint: 25.0°C (77°F) [RH = 84%]
Pressure (altimeter): 29.81 inches Hg (1009.6 mb)
Winds: calm
Visibility: 6 or more miles (10+ km)
Ceiling: 1000 feet AGL
Clouds: broken clouds at 1000 feet AGL
Weather: no significant weather observed at this time

 AIRPORT MAP

 RUNWAY INFORMATION
Runway 15 Runway length 7153 ft Runway width 98 ft
Runway elevation 39 ft Runway displaced threshold 0 ft Runway heading 150
Runway 33 Runway length 7153 ft Runway width 98 ft
Runway elevation 46 ft Runway displaced threshold 0 ft Runway heading 330

 AIRPORT FREQUENCIES
Type RDO Name CAREPA RDO Frequency 348.8 MHZ
Type TWR Name TWR Frequency 118.7 MHZ

 AIRPORT NEAR NAVIGATION AIDS
Type VOR-DME Name Los Cedros Frequency 112600 KHZ